sensor_id;sensor_type;location;lat;lon;timestamp;P1;durP1;ratioP1;P2;durP2;ratioP2
69419;SDS011;56612;52.030;113.524;2023-05-29T00:02:39;3.55;;;1.33;;
69419;SDS011;56612;52.030;113.524;2023-05-29T00:05:46;6.40;;;1.87;;
69419;SDS011;56612;52.030;113.524;2023-05-29T00:08:49;6.23;;;1.53;;
69419;SDS011;56612;52.030;113.524;2023-05-29T00:11:53;6.13;;;1.80;;
69419;SDS011;56612;52.030;113.524;2023-05-29T00:14:57;7.10;;;1.60;;
69419;SDS011;56612;52.030;113.524;2023-05-29T00:18:00;5.38;;;1.67;;
69419;SDS011;56612;52.030;113.524;2023-05-29T00:21:03;6.47;;;1.70;;
69419;SDS011;56612;52.030;113.524;2023-05-29T00:24:08;7.37;;;1.90;;
69419;SDS011;56612;52.030;113.524;2023-05-29T00:27:12;7.32;;;1.98;;
69419;SDS011;56612;52.030;113.524;2023-05-29T00:30:16;8.70;;;2.08;;
69419;SDS011;56612;52.030;113.524;2023-05-29T00:33:20;7.00;;;1.88;;
69419;SDS011;56612;52.030;113.524;2023-05-29T00:36:23;4.20;;;1.77;;
69419;SDS011;56612;52.030;113.524;2023-05-29T00:39:27;7.97;;;1.90;;
69419;SDS011;56612;52.030;113.524;2023-05-29T00:42:31;5.53;;;2.00;;
69419;SDS011;56612;52.030;113.524;2023-05-29T00:45:35;5.65;;;1.70;;
69419;SDS011;56612;52.030;113.524;2023-05-29T00:48:40;4.40;;;1.83;;
69419;SDS011;56612;52.030;113.524;2023-05-29T00:51:46;5.30;;;1.97;;
69419;SDS011;56612;52.030;113.524;2023-05-29T00:54:50;5.43;;;1.90;;
69419;SDS011;56612;52.030;113.524;2023-05-29T00:57:55;6.85;;;2.03;;
69419;SDS011;56612;52.030;113.524;2023-05-29T01:00:59;7.13;;;2.22;;
69419;SDS011;56612;52.030;113.524;2023-05-29T01:04:03;7.28;;;2.40;;
69419;SDS011;56612;52.030;113.524;2023-05-29T01:07:12;6.67;;;1.87;;
69419;SDS011;56612;52.030;113.524;2023-05-29T01:10:17;8.50;;;2.40;;
69419;SDS011;56612;52.030;113.524;2023-05-29T01:13:22;4.47;;;1.88;;
69419;SDS011;56612;52.030;113.524;2023-05-29T01:20:17;5.78;;;2.70;;
69419;SDS011;56612;52.030;113.524;2023-05-29T01:26:52;6.00;;;2.00;;
69419;SDS011;56612;52.030;113.524;2023-05-29T01:29:58;6.68;;;2.40;;
69419;SDS011;56612;52.030;113.524;2023-05-29T01:33:04;7.45;;;1.90;;
69419;SDS011;56612;52.030;113.524;2023-05-29T01:36:08;9.15;;;2.05;;
69419;SDS011;56612;52.030;113.524;2023-05-29T01:39:14;9.00;;;2.20;;
69419;SDS011;56612;52.030;113.524;2023-05-29T01:42:18;4.77;;;2.10;;
69419;SDS011;56612;52.030;113.524;2023-05-29T01:45:24;6.40;;;2.38;;
69419;SDS011;56612;52.030;113.524;2023-05-29T01:48:28;5.18;;;1.98;;
69419;SDS011;56612;52.030;113.524;2023-05-29T01:51:33;5.45;;;2.00;;
69419;SDS011;56612;52.030;113.524;2023-05-29T01:54:38;6.67;;;2.30;;
69419;SDS011;56612;52.030;113.524;2023-05-29T01:57:42;6.83;;;2.40;;
69419;SDS011;56612;52.030;113.524;2023-05-29T02:00:47;6.30;;;2.55;;
69419;SDS011;56612;52.030;113.524;2023-05-29T02:03:51;5.72;;;2.13;;
69419;SDS011;56612;52.030;113.524;2023-05-29T02:06:55;5.22;;;1.98;;
69419;SDS011;56612;52.030;113.524;2023-05-29T02:09:59;5.87;;;2.10;;
69419;SDS011;56612;52.030;113.524;2023-05-29T02:13:03;5.33;;;2.27;;
69419;SDS011;56612;52.030;113.524;2023-05-29T02:16:07;6.05;;;2.17;;
69419;SDS011;56612;52.030;113.524;2023-05-29T02:19:12;7.97;;;2.88;;
69419;SDS011;56612;52.030;113.524;2023-05-29T02:22:16;4.45;;;1.83;;
69419;SDS011;56612;52.030;113.524;2023-05-29T02:25:21;7.87;;;1.97;;
69419;SDS011;56612;52.030;113.524;2023-05-29T02:28:26;7.80;;;2.83;;
69419;SDS011;56612;52.030;113.524;2023-05-29T02:31:30;7.90;;;2.42;;
69419;SDS011;56612;52.030;113.524;2023-05-29T02:34:34;4.53;;;1.88;;
69419;SDS011;56612;52.030;113.524;2023-05-29T02:37:39;4.22;;;1.83;;
69419;SDS011;56612;52.030;113.524;2023-05-29T02:40:43;5.33;;;2.20;;
69419;SDS011;56612;52.030;113.524;2023-05-29T02:43:47;6.47;;;2.07;;
69419;SDS011;56612;52.030;113.524;2023-05-29T02:46:51;7.38;;;2.47;;
69419;SDS011;56612;52.030;113.524;2023-05-29T02:49:55;3.72;;;1.88;;
69419;SDS011;56612;52.030;113.524;2023-05-29T02:52:59;5.22;;;2.10;;
69419;SDS011;56612;52.030;113.524;2023-05-29T02:56:03;5.07;;;2.23;;
69419;SDS011;56612;52.030;113.524;2023-05-29T02:59:07;5.50;;;2.00;;
69419;SDS011;56612;52.030;113.524;2023-05-29T03:02:11;7.07;;;2.00;;
69419;SDS011;56612;52.030;113.524;2023-05-29T03:05:15;5.45;;;2.35;;
69419;SDS011;56612;52.030;113.524;2023-05-29T03:08:20;3.60;;;2.10;;
69419;SDS011;56612;52.030;113.524;2023-05-29T03:11:24;4.83;;;1.90;;
69419;SDS011;56612;52.030;113.524;2023-05-29T03:14:28;7.20;;;1.97;;
69419;SDS011;56612;52.030;113.524;2023-05-29T03:17:32;6.43;;;2.17;;
69419;SDS011;56612;52.030;113.524;2023-05-29T03:20:36;4.28;;;2.05;;
69419;SDS011;56612;52.030;113.524;2023-05-29T03:23:41;4.10;;;2.00;;
69419;SDS011;56612;52.030;113.524;2023-05-29T03:26:46;5.07;;;2.50;;
69419;SDS011;56612;52.030;113.524;2023-05-29T03:29:51;5.03;;;2.37;;
69419;SDS011;56612;52.030;113.524;2023-05-29T03:32:57;4.13;;;2.40;;
69419;SDS011;56612;52.030;113.524;2023-05-29T03:36:26;5.22;;;2.05;;
69419;SDS011;56612;52.030;113.524;2023-05-29T03:39:30;4.03;;;2.03;;
69419;SDS011;56612;52.030;113.524;2023-05-29T03:42:34;4.07;;;2.43;;
69419;SDS011;56612;52.030;113.524;2023-05-29T03:45:39;3.63;;;1.80;;
69419;SDS011;56612;52.030;113.524;2023-05-29T03:48:43;4.75;;;2.13;;
69419;SDS011;56612;52.030;113.524;2023-05-29T03:51:47;5.60;;;2.42;;
69419;SDS011;56612;52.030;113.524;2023-05-29T03:54:54;10.77;;;2.33;;
69419;SDS011;56612;52.030;113.524;2023-05-29T03:57:59;5.27;;;2.20;;
69419;SDS011;56612;52.030;113.524;2023-05-29T04:01:03;4.93;;;2.03;;
69419;SDS011;56612;52.030;113.524;2023-05-29T04:04:07;6.60;;;2.38;;
69419;SDS011;56612;52.030;113.524;2023-05-29T04:07:11;7.80;;;2.30;;
69419;SDS011;56612;52.030;113.524;2023-05-29T04:10:16;6.35;;;2.38;;
69419;SDS011;56612;52.030;113.524;2023-05-29T04:13:20;4.13;;;2.27;;
69419;SDS011;56612;52.030;113.524;2023-05-29T04:16:24;4.50;;;2.30;;
69419;SDS011;56612;52.030;113.524;2023-05-29T04:19:28;4.40;;;2.40;;
69419;SDS011;56612;52.030;113.524;2023-05-29T04:22:32;5.05;;;2.40;;
69419;SDS011;56612;52.030;113.524;2023-05-29T04:25:36;3.72;;;2.10;;
69419;SDS011;56612;52.030;113.524;2023-05-29T04:28:40;3.53;;;2.20;;
69419;SDS011;56612;52.030;113.524;2023-05-29T04:31:46;4.40;;;2.20;;
69419;SDS011;56612;52.030;113.524;2023-05-29T04:34:50;3.70;;;2.10;;
69419;SDS011;56612;52.030;113.524;2023-05-29T04:37:54;6.00;;;2.30;;
69419;SDS011;56612;52.030;113.524;2023-05-29T04:41:03;6.10;;;2.95;;
69419;SDS011;56612;52.030;113.524;2023-05-29T04:44:07;4.93;;;2.07;;
69419;SDS011;56612;52.030;113.524;2023-05-29T04:47:25;6.30;;;3.00;;
69419;SDS011;56612;52.030;113.524;2023-05-29T04:50:29;4.47;;;2.47;;
69419;SDS011;56612;52.030;113.524;2023-05-29T04:53:35;6.20;;;2.40;;
69419;SDS011;56612;52.030;113.524;2023-05-29T04:56:38;9.75;;;3.33;;
69419;SDS011;56612;52.030;113.524;2023-05-29T04:59:48;7.40;;;2.80;;
69419;SDS011;56612;52.030;113.524;2023-05-29T05:02:53;5.17;;;2.33;;
69419;SDS011;56612;52.030;113.524;2023-05-29T05:05:59;6.85;;;2.88;;
69419;SDS011;56612;52.030;113.524;2023-05-29T05:09:06;4.90;;;2.63;;
69419;SDS011;56612;52.030;113.524;2023-05-29T05:12:11;5.03;;;2.50;;
69419;SDS011;56612;52.030;113.524;2023-05-29T05:15:15;4.20;;;2.40;;
69419;SDS011;56612;52.030;113.524;2023-05-29T05:18:19;5.37;;;2.43;;
69419;SDS011;56612;52.030;113.524;2023-05-29T05:21:33;4.88;;;3.00;;
69419;SDS011;56612;52.030;113.524;2023-05-29T05:24:37;5.60;;;2.65;;
69419;SDS011;56612;52.030;113.524;2023-05-29T05:27:42;6.25;;;2.65;;
69419;SDS011;56612;52.030;113.524;2023-05-29T05:30:46;8.47;;;2.77;;
69419;SDS011;56612;52.030;113.524;2023-05-29T05:33:51;5.03;;;2.57;;
69419;SDS011;56612;52.030;113.524;2023-05-29T05:36:55;6.25;;;2.80;;
69419;SDS011;56612;52.030;113.524;2023-05-29T05:39:59;4.03;;;2.70;;
69419;SDS011;56612;52.030;113.524;2023-05-29T05:43:05;5.63;;;2.58;;
69419;SDS011;56612;52.030;113.524;2023-05-29T05:46:30;5.87;;;2.87;;
69419;SDS011;56612;52.030;113.524;2023-05-29T05:49:36;5.23;;;2.57;;
69419;SDS011;56612;52.030;113.524;2023-05-29T05:52:40;6.95;;;2.90;;
69419;SDS011;56612;52.030;113.524;2023-05-29T05:55:45;3.92;;;3.10;;
69419;SDS011;56612;52.030;113.524;2023-05-29T05:58:49;4.70;;;3.10;;
69419;SDS011;56612;52.030;113.524;2023-05-29T06:01:54;7.20;;;3.17;;
69419;SDS011;56612;52.030;113.524;2023-05-29T06:04:58;8.60;;;3.30;;
69419;SDS011;56612;52.030;113.524;2023-05-29T06:08:02;6.45;;;3.03;;
69419;SDS011;56612;52.030;113.524;2023-05-29T06:11:07;4.95;;;2.90;;
69419;SDS011;56612;52.030;113.524;2023-05-29T06:14:13;4.35;;;3.10;;
69419;SDS011;56612;52.030;113.524;2023-05-29T06:17:18;4.10;;;3.17;;
69419;SDS011;56612;52.030;113.524;2023-05-29T06:20:24;5.43;;;3.00;;
69419;SDS011;56612;52.030;113.524;2023-05-29T06:23:29;4.60;;;2.63;;
69419;SDS011;56612;52.030;113.524;2023-05-29T06:26:36;4.20;;;3.03;;
69419;SDS011;56612;52.030;113.524;2023-05-29T06:29:42;4.15;;;3.10;;
69419;SDS011;56612;52.030;113.524;2023-05-29T06:32:46;4.40;;;3.23;;
69419;SDS011;56612;52.030;113.524;2023-05-29T06:35:50;3.60;;;2.57;;
69419;SDS011;56612;52.030;113.524;2023-05-29T06:38:55;4.28;;;3.10;;
69419;SDS011;56612;52.030;113.524;2023-05-29T06:42:00;4.68;;;3.28;;
69419;SDS011;56612;52.030;113.524;2023-05-29T06:45:08;3.70;;;3.15;;
69419;SDS011;56612;52.030;113.524;2023-05-29T06:48:13;5.20;;;3.50;;
69419;SDS011;56612;52.030;113.524;2023-05-29T06:51:20;5.20;;;3.13;;
69419;SDS011;56612;52.030;113.524;2023-05-29T06:54:30;11.02;;;5.38;;
69419;SDS011;56612;52.030;113.524;2023-05-29T06:57:34;9.02;;;3.80;;
69419;SDS011;56612;52.030;113.524;2023-05-29T07:04:56;5.27;;;4.43;;
69419;SDS011;56612;52.030;113.524;2023-05-29T07:08:01;7.27;;;4.00;;
69419;SDS011;56612;52.030;113.524;2023-05-29T07:11:05;7.25;;;4.18;;
69419;SDS011;56612;52.030;113.524;2023-05-29T07:14:09;5.38;;;4.70;;
69419;SDS011;56612;52.030;113.524;2023-05-29T07:17:13;11.88;;;5.50;;
69419;SDS011;56612;52.030;113.524;2023-05-29T07:20:17;4.83;;;4.10;;
69419;SDS011;56612;52.030;113.524;2023-05-29T07:23:24;6.37;;;4.17;;
69419;SDS011;56612;52.030;113.524;2023-05-29T07:26:30;8.00;;;4.57;;
69419;SDS011;56612;52.030;113.524;2023-05-29T07:29:36;5.57;;;3.83;;
69419;SDS011;56612;52.030;113.524;2023-05-29T07:32:40;9.40;;;4.35;;
69419;SDS011;56612;52.030;113.524;2023-05-29T07:35:44;4.90;;;4.07;;
69419;SDS011;56612;52.030;113.524;2023-05-29T07:38:49;4.10;;;3.13;;
69419;SDS011;56612;52.030;113.524;2023-05-29T07:41:54;7.07;;;4.10;;
69419;SDS011;56612;52.030;113.524;2023-05-29T07:44:58;7.35;;;3.65;;
69419;SDS011;56612;52.030;113.524;2023-05-29T07:48:02;5.00;;;3.88;;
69419;SDS011;56612;52.030;113.524;2023-05-29T07:51:06;5.07;;;3.60;;
69419;SDS011;56612;52.030;113.524;2023-05-29T07:54:17;8.73;;;3.53;;
69419;SDS011;56612;52.030;113.524;2023-05-29T07:57:23;7.28;;;3.83;;
69419;SDS011;56612;52.030;113.524;2023-05-29T08:00:30;9.18;;;3.63;;
69419;SDS011;56612;52.030;113.524;2023-05-29T08:03:37;6.05;;;3.58;;
69419;SDS011;56612;52.030;113.524;2023-05-29T08:07:00;5.57;;;2.83;;
69419;SDS011;56612;52.030;113.524;2023-05-29T08:10:07;6.53;;;3.57;;
69419;SDS011;56612;52.030;113.524;2023-05-29T08:13:10;4.65;;;3.08;;
69419;SDS011;56612;52.030;113.524;2023-05-29T08:16:18;4.93;;;3.38;;
69419;SDS011;56612;52.030;113.524;2023-05-29T08:19:21;4.80;;;3.40;;
69419;SDS011;56612;52.030;113.524;2023-05-29T08:22:28;6.80;;;2.90;;
69419;SDS011;56612;52.030;113.524;2023-05-29T08:25:32;5.93;;;3.50;;
69419;SDS011;56612;52.030;113.524;2023-05-29T08:28:36;6.93;;;3.30;;
69419;SDS011;56612;52.030;113.524;2023-05-29T08:31:43;5.90;;;3.35;;
69419;SDS011;56612;52.030;113.524;2023-05-29T08:34:48;7.63;;;3.30;;
69419;SDS011;56612;52.030;113.524;2023-05-29T08:37:52;5.93;;;3.70;;
69419;SDS011;56612;52.030;113.524;2023-05-29T08:40:57;4.90;;;3.27;;
69419;SDS011;56612;52.030;113.524;2023-05-29T08:44:03;6.45;;;3.15;;
69419;SDS011;56612;52.030;113.524;2023-05-29T08:47:09;8.77;;;3.95;;
69419;SDS011;56612;52.030;113.524;2023-05-29T08:50:19;5.10;;;3.58;;
69419;SDS011;56612;52.030;113.524;2023-05-29T08:53:26;11.07;;;4.30;;
69419;SDS011;56612;52.030;113.524;2023-05-29T08:56:29;8.17;;;3.63;;
69419;SDS011;56612;52.030;113.524;2023-05-29T08:59:36;6.35;;;3.40;;
69419;SDS011;56612;52.030;113.524;2023-05-29T09:02:42;5.90;;;3.30;;
69419;SDS011;56612;52.030;113.524;2023-05-29T09:05:49;5.63;;;2.88;;
69419;SDS011;56612;52.030;113.524;2023-05-29T09:08:52;5.43;;;3.90;;
69419;SDS011;56612;52.030;113.524;2023-05-29T09:11:56;6.07;;;3.23;;
69419;SDS011;56612;52.030;113.524;2023-05-29T09:15:01;7.38;;;3.10;;
69419;SDS011;56612;52.030;113.524;2023-05-29T09:18:06;5.43;;;2.65;;
69419;SDS011;56612;52.030;113.524;2023-05-29T09:21:15;6.07;;;2.83;;
69419;SDS011;56612;52.030;113.524;2023-05-29T09:24:32;4.40;;;3.00;;
69419;SDS011;56612;52.030;113.524;2023-05-29T09:27:39;4.47;;;3.20;;
69419;SDS011;56612;52.030;113.524;2023-05-29T09:30:44;5.28;;;3.00;;
69419;SDS011;56612;52.030;113.524;2023-05-29T09:33:49;4.28;;;3.13;;
69419;SDS011;56612;52.030;113.524;2023-05-29T09:36:53;6.20;;;2.90;;
69419;SDS011;56612;52.030;113.524;2023-05-29T09:40:06;5.73;;;2.87;;
69419;SDS011;56612;52.030;113.524;2023-05-29T09:43:14;4.83;;;2.80;;
69419;SDS011;56612;52.030;113.524;2023-05-29T09:46:19;4.75;;;3.35;;
69419;SDS011;56612;52.030;113.524;2023-05-29T09:49:24;4.32;;;2.90;;
69419;SDS011;56612;52.030;113.524;2023-05-29T09:52:29;5.50;;;3.50;;
69419;SDS011;56612;52.030;113.524;2023-05-29T09:55:33;6.63;;;2.97;;
69419;SDS011;56612;52.030;113.524;2023-05-29T09:58:39;7.47;;;2.80;;
69419;SDS011;56612;52.030;113.524;2023-05-29T10:01:48;6.13;;;2.75;;
69419;SDS011;56612;52.030;113.524;2023-05-29T10:05:00;5.68;;;2.45;;
69419;SDS011;56612;52.030;113.524;2023-05-29T10:08:04;4.30;;;2.50;;
69419;SDS011;56612;52.030;113.524;2023-05-29T10:11:11;5.03;;;2.90;;
69419;SDS011;56612;52.030;113.524;2023-05-29T10:14:18;5.60;;;2.90;;
69419;SDS011;56612;52.030;113.524;2023-05-29T10:17:26;4.47;;;2.28;;
69419;SDS011;56612;52.030;113.524;2023-05-29T10:20:35;8.38;;;2.58;;
69419;SDS011;56612;52.030;113.524;2023-05-29T10:23:40;5.53;;;2.30;;
69419;SDS011;56612;52.030;113.524;2023-05-29T10:26:48;7.70;;;3.13;;
69419;SDS011;56612;52.030;113.524;2023-05-29T10:36:53;8.50;;;3.63;;
69419;SDS011;56612;52.030;113.524;2023-05-29T10:40:06;7.20;;;3.53;;
69419;SDS011;56612;52.030;113.524;2023-05-29T10:43:51;4.73;;;2.57;;
69419;SDS011;56612;52.030;113.524;2023-05-29T10:49:51;4.57;;;2.10;;
69419;SDS011;56612;52.030;113.524;2023-05-29T10:52:55;24.42;;;11.15;;
69419;SDS011;56612;52.030;113.524;2023-05-29T10:55:59;7.32;;;2.72;;
69419;SDS011;56612;52.030;113.524;2023-05-29T10:59:07;5.10;;;2.07;;
69419;SDS011;56612;52.030;113.524;2023-05-29T11:02:19;5.77;;;1.90;;
69419;SDS011;56612;52.030;113.524;2023-05-29T11:05:25;5.95;;;2.20;;
69419;SDS011;56612;52.030;113.524;2023-05-29T11:08:32;12.05;;;6.93;;
69419;SDS011;56612;52.030;113.524;2023-05-29T11:12:08;13.13;;;3.50;;
69419;SDS011;56612;52.030;113.524;2023-05-29T11:15:12;10.73;;;3.77;;
69419;SDS011;56612;52.030;113.524;2023-05-29T11:18:19;8.13;;;2.60;;
69419;SDS011;56612;52.030;113.524;2023-05-29T11:24:37;6.85;;;2.95;;
69419;SDS011;56612;52.030;113.524;2023-05-29T11:27:43;7.38;;;2.78;;
69419;SDS011;56612;52.030;113.524;2023-05-29T11:30:48;8.43;;;2.90;;
69419;SDS011;56612;52.030;113.524;2023-05-29T11:33:52;10.37;;;3.27;;
69419;SDS011;56612;52.030;113.524;2023-05-29T11:37:03;8.30;;;3.10;;
69419;SDS011;56612;52.030;113.524;2023-05-29T11:40:06;9.90;;;3.13;;
69419;SDS011;56612;52.030;113.524;2023-05-29T11:43:15;31.95;;;14.38;;
69419;SDS011;56612;52.030;113.524;2023-05-29T11:46:20;14.70;;;4.47;;
69419;SDS011;56612;52.030;113.524;2023-05-29T11:49:28;12.37;;;4.57;;
69419;SDS011;56612;52.030;113.524;2023-05-29T11:52:32;12.23;;;4.15;;
69419;SDS011;56612;52.030;113.524;2023-05-29T11:55:36;9.43;;;4.15;;
69419;SDS011;56612;52.030;113.524;2023-05-29T11:58:39;8.75;;;3.70;;
69419;SDS011;56612;52.030;113.524;2023-05-29T12:01:43;13.23;;;4.13;;
69419;SDS011;56612;52.030;113.524;2023-05-29T12:05:02;9.27;;;3.77;;
69419;SDS011;56612;52.030;113.524;2023-05-29T12:08:09;11.13;;;3.83;;
69419;SDS011;56612;52.030;113.524;2023-05-29T12:11:13;12.52;;;4.13;;
69419;SDS011;56612;52.030;113.524;2023-05-29T12:14:16;8.82;;;4.00;;
69419;SDS011;56612;52.030;113.524;2023-05-29T12:17:20;9.17;;;4.00;;
69419;SDS011;56612;52.030;113.524;2023-05-29T12:20:24;9.60;;;3.70;;
69419;SDS011;56612;52.030;113.524;2023-05-29T12:23:31;9.85;;;4.30;;
69419;SDS011;56612;52.030;113.524;2023-05-29T12:26:35;16.08;;;4.57;;
69419;SDS011;56612;52.030;113.524;2023-05-29T12:29:38;15.98;;;4.60;;
69419;SDS011;56612;52.030;113.524;2023-05-29T12:32:42;45.63;;;23.60;;
69419;SDS011;56612;52.030;113.524;2023-05-29T12:35:47;14.87;;;6.57;;
69419;SDS011;56612;52.030;113.524;2023-05-29T12:38:51;15.30;;;6.43;;
69419;SDS011;56612;52.030;113.524;2023-05-29T12:41:56;15.52;;;5.38;;
69419;SDS011;56612;52.030;113.524;2023-05-29T12:45:01;16.52;;;5.35;;
69419;SDS011;56612;52.030;113.524;2023-05-29T12:48:09;20.47;;;6.37;;
69419;SDS011;56612;52.030;113.524;2023-05-29T12:51:14;18.47;;;6.57;;
69419;SDS011;56612;52.030;113.524;2023-05-29T12:54:18;16.25;;;6.20;;
69419;SDS011;56612;52.030;113.524;2023-05-29T12:57:22;18.20;;;6.63;;
69419;SDS011;56612;52.030;113.524;2023-05-29T13:00:26;27.95;;;7.18;;
69419;SDS011;56612;52.030;113.524;2023-05-29T13:03:30;21.43;;;6.90;;
69419;SDS011;56612;52.030;113.524;2023-05-29T13:06:35;20.83;;;8.70;;
69419;SDS011;56612;52.030;113.524;2023-05-29T13:09:40;19.90;;;7.72;;
69419;SDS011;56612;52.030;113.524;2023-05-29T13:12:44;28.95;;;9.75;;
69419;SDS011;56612;52.030;113.524;2023-05-29T13:15:48;23.80;;;9.00;;
69419;SDS011;56612;52.030;113.524;2023-05-29T13:18:51;22.17;;;8.17;;
69419;SDS011;56612;52.030;113.524;2023-05-29T13:21:55;24.57;;;8.07;;
69419;SDS011;56612;52.030;113.524;2023-05-29T13:24:58;19.15;;;7.45;;
69419;SDS011;56612;52.030;113.524;2023-05-29T13:28:02;19.83;;;7.35;;
69419;SDS011;56612;52.030;113.524;2023-05-29T13:31:06;23.15;;;7.50;;
69419;SDS011;56612;52.030;113.524;2023-05-29T13:34:10;25.60;;;7.00;;
69419;SDS011;56612;52.030;113.524;2023-05-29T13:37:14;23.70;;;6.90;;
69419;SDS011;56612;52.030;113.524;2023-05-29T13:40:18;24.50;;;6.93;;
69419;SDS011;56612;52.030;113.524;2023-05-29T13:43:22;17.38;;;6.40;;
69419;SDS011;56612;52.030;113.524;2023-05-29T13:46:37;20.80;;;8.07;;
69419;SDS011;56612;52.030;113.524;2023-05-29T13:49:41;21.10;;;7.43;;
69419;SDS011;56612;52.030;113.524;2023-05-29T13:52:45;19.83;;;6.93;;
69419;SDS011;56612;52.030;113.524;2023-05-29T13:55:49;17.35;;;6.40;;
69419;SDS011;56612;52.030;113.524;2023-05-29T13:58:53;19.40;;;6.93;;
69419;SDS011;56612;52.030;113.524;2023-05-29T14:01:57;25.63;;;7.38;;
69419;SDS011;56612;52.030;113.524;2023-05-29T14:05:01;21.77;;;6.97;;
69419;SDS011;56612;52.030;113.524;2023-05-29T14:08:05;20.90;;;5.93;;
69419;SDS011;56612;52.030;113.524;2023-05-29T14:11:09;19.92;;;6.10;;
69419;SDS011;56612;52.030;113.524;2023-05-29T14:14:12;19.35;;;5.65;;
69419;SDS011;56612;52.030;113.524;2023-05-29T14:17:16;21.92;;;8.07;;
69419;SDS011;56612;52.030;113.524;2023-05-29T14:20:20;40.90;;;22.33;;
69419;SDS011;56612;52.030;113.524;2023-05-29T14:23:23;22.20;;;7.70;;
69419;SDS011;56612;52.030;113.524;2023-05-29T14:26:30;24.65;;;6.50;;
69419;SDS011;56612;52.030;113.524;2023-05-29T14:29:33;22.77;;;6.00;;
69419;SDS011;56612;52.030;113.524;2023-05-29T14:32:38;19.27;;;6.15;;
69419;SDS011;56612;52.030;113.524;2023-05-29T14:35:42;17.80;;;6.03;;
69419;SDS011;56612;52.030;113.524;2023-05-29T14:38:46;20.77;;;6.23;;
69419;SDS011;56612;52.030;113.524;2023-05-29T14:41:52;17.73;;;6.38;;
69419;SDS011;56612;52.030;113.524;2023-05-29T14:44:56;19.80;;;6.80;;
69419;SDS011;56612;52.030;113.524;2023-05-29T14:48:00;21.58;;;6.40;;
69419;SDS011;56612;52.030;113.524;2023-05-29T14:51:05;17.93;;;6.50;;
69419;SDS011;56612;52.030;113.524;2023-05-29T14:54:09;16.97;;;6.47;;
69419;SDS011;56612;52.030;113.524;2023-05-29T14:57:15;35.25;;;13.07;;
69419;SDS011;56612;52.030;113.524;2023-05-29T15:00:18;19.08;;;6.88;;
69419;SDS011;56612;52.030;113.524;2023-05-29T15:03:22;17.75;;;6.30;;
69419;SDS011;56612;52.030;113.524;2023-05-29T15:06:29;18.80;;;6.27;;
69419;SDS011;56612;52.030;113.524;2023-05-29T15:09:34;30.70;;;9.93;;
69419;SDS011;56612;52.030;113.524;2023-05-29T15:12:38;32.40;;;10.82;;
69419;SDS011;56612;52.030;113.524;2023-05-29T15:15:42;32.05;;;13.10;;
69419;SDS011;56612;52.030;113.524;2023-05-29T15:18:50;24.30;;;8.27;;
69419;SDS011;56612;52.030;113.524;2023-05-29T15:21:54;23.80;;;7.60;;
69419;SDS011;56612;52.030;113.524;2023-05-29T15:24:58;21.10;;;7.57;;
69419;SDS011;56612;52.030;113.524;2023-05-29T15:28:01;26.85;;;10.07;;
69419;SDS011;56612;52.030;113.524;2023-05-29T15:31:06;27.55;;;9.32;;
69419;SDS011;56612;52.030;113.524;2023-05-29T15:34:10;25.02;;;10.40;;
69419;SDS011;56612;52.030;113.524;2023-05-29T15:37:13;26.40;;;10.27;;
69419;SDS011;56612;52.030;113.524;2023-05-29T15:40:17;27.77;;;10.37;;
69419;SDS011;56612;52.030;113.524;2023-05-29T15:43:20;25.30;;;9.80;;
69419;SDS011;56612;52.030;113.524;2023-05-29T15:46:27;26.05;;;10.35;;
69419;SDS011;56612;52.030;113.524;2023-05-29T15:49:32;24.73;;;10.52;;
69419;SDS011;56612;52.030;113.524;2023-05-29T15:52:36;27.47;;;10.63;;
69419;SDS011;56612;52.030;113.524;2023-05-29T15:55:55;27.30;;;10.13;;
69419;SDS011;56612;52.030;113.524;2023-05-29T15:58:59;30.13;;;9.88;;
69419;SDS011;56612;52.030;113.524;2023-05-29T16:02:02;27.00;;;10.52;;
69419;SDS011;56612;52.030;113.524;2023-05-29T16:05:06;22.20;;;9.30;;
69419;SDS011;56612;52.030;113.524;2023-05-29T16:08:10;21.33;;;10.67;;
69419;SDS011;56612;52.030;113.524;2023-05-29T16:11:15;22.03;;;9.57;;
69419;SDS011;56612;52.030;113.524;2023-05-29T16:14:18;22.65;;;10.27;;
69419;SDS011;56612;52.030;113.524;2023-05-29T16:17:22;21.60;;;9.45;;
69419;SDS011;56612;52.030;113.524;2023-05-29T16:20:26;24.90;;;9.13;;
69419;SDS011;56612;52.030;113.524;2023-05-29T16:23:31;23.37;;;10.20;;
69419;SDS011;56612;52.030;113.524;2023-05-29T16:26:35;26.70;;;10.03;;
69419;SDS011;56612;52.030;113.524;2023-05-29T16:29:38;27.58;;;10.15;;
69419;SDS011;56612;52.030;113.524;2023-05-29T16:32:42;18.95;;;8.15;;
69419;SDS011;56612;52.030;113.524;2023-05-29T16:35:47;17.67;;;7.45;;
69419;SDS011;56612;52.030;113.524;2023-05-29T16:38:51;24.37;;;7.37;;
69419;SDS011;56612;52.030;113.524;2023-05-29T16:41:54;17.07;;;7.90;;
69419;SDS011;56612;52.030;113.524;2023-05-29T16:44:58;18.20;;;7.93;;
69419;SDS011;56612;52.030;113.524;2023-05-29T16:48:02;20.50;;;7.70;;
69419;SDS011;56612;52.030;113.524;2023-05-29T16:51:06;21.70;;;8.07;;
69419;SDS011;56612;52.030;113.524;2023-05-29T16:54:10;21.63;;;8.00;;
69419;SDS011;56612;52.030;113.524;2023-05-29T16:57:13;18.73;;;7.90;;
69419;SDS011;56612;52.030;113.524;2023-05-29T17:00:17;20.10;;;7.55;;
69419;SDS011;56612;52.030;113.524;2023-05-29T17:03:21;19.00;;;7.03;;
69419;SDS011;56612;52.030;113.524;2023-05-29T17:06:24;20.20;;;7.03;;
69419;SDS011;56612;52.030;113.524;2023-05-29T17:09:28;18.57;;;7.43;;
69419;SDS011;56612;52.030;113.524;2023-05-29T17:12:32;18.77;;;7.33;;
69419;SDS011;56612;52.030;113.524;2023-05-29T17:15:36;16.27;;;7.70;;
69419;SDS011;56612;52.030;113.524;2023-05-29T17:18:40;18.27;;;7.10;;
69419;SDS011;56612;52.030;113.524;2023-05-29T17:21:44;19.58;;;7.03;;
69419;SDS011;56612;52.030;113.524;2023-05-29T17:24:49;19.10;;;7.27;;
69419;SDS011;56612;52.030;113.524;2023-05-29T17:27:53;15.50;;;6.83;;
69419;SDS011;56612;52.030;113.524;2023-05-29T17:30:57;22.38;;;9.00;;
69419;SDS011;56612;52.030;113.524;2023-05-29T17:34:01;16.40;;;6.80;;
69419;SDS011;56612;52.030;113.524;2023-05-29T17:37:05;17.65;;;6.82;;
69419;SDS011;56612;52.030;113.524;2023-05-29T17:40:11;19.83;;;6.80;;
69419;SDS011;56612;52.030;113.524;2023-05-29T17:43:16;15.27;;;6.67;;
69419;SDS011;56612;52.030;113.524;2023-05-29T17:46:19;18.42;;;7.00;;
69419;SDS011;56612;52.030;113.524;2023-05-29T17:49:23;18.02;;;7.30;;
69419;SDS011;56612;52.030;113.524;2023-05-29T17:52:27;23.35;;;7.65;;
69419;SDS011;56612;52.030;113.524;2023-05-29T17:55:32;20.93;;;6.90;;
69419;SDS011;56612;52.030;113.524;2023-05-29T17:58:35;23.37;;;7.73;;
69419;SDS011;56612;52.030;113.524;2023-05-29T18:01:40;23.60;;;7.28;;
69419;SDS011;56612;52.030;113.524;2023-05-29T18:04:44;17.45;;;7.72;;
69419;SDS011;56612;52.030;113.524;2023-05-29T18:07:51;21.33;;;7.72;;
69419;SDS011;56612;52.030;113.524;2023-05-29T18:10:55;22.23;;;7.60;;
69419;SDS011;56612;52.030;113.524;2023-05-29T18:13:58;17.90;;;7.13;;
69419;SDS011;56612;52.030;113.524;2023-05-29T18:17:01;15.38;;;6.55;;
69419;SDS011;56612;52.030;113.524;2023-05-29T18:20:05;13.80;;;5.35;;
69419;SDS011;56612;52.030;113.524;2023-05-29T18:23:10;14.82;;;5.80;;